Time;durP1;ratioP1;P1;durP2;ratioP2;P2;SDS_P1;SDS_P2;PMS_P1;PMS_P2;Temp;Humidity;BMP_temperature;BMP_pressure;BME280_temperature;BME280_humidity;BME280_pressure;Samples;Min_cycle;Max_cycle;Signal;HPM_P1;HPM_P2
2022/07/05 00:01:29;;;;;;;5.63;5.13;;;20.30;91.20;;;;;;5093823;28;20874;-69
2022/07/05 00:03:56;;;;;;;5.20;4.77;;;20.00;91.90;;;;;;5093622;28;20536;-69
2022/07/05 00:06:23;;;;;;;4.83;4.50;;;19.90;92.60;;;;;;5093688;28;20507;-68
2022/07/05 00:08:50;;;;;;;5.00;4.60;;;19.80;93.60;;;;;;5093815;28;20722;-69
2022/07/05 00:11:17;;;;;;;5.88;5.38;;;19.80;93.80;;;;;;5093647;28;20481;-69
2022/07/05 00:13:44;;;;;;;5.50;5.10;;;19.80;94.40;;;;;;5093442;28;20278;-69
2022/07/05 00:16:11;;;;;;;5.70;5.20;;;19.80;94.80;;;;;;5093535;28;20524;-68
2022/07/05 00:18:39;;;;;;;5.70;5.30;;;20.00;95.20;;;;;;5093352;28;20949;-69
2022/07/05 00:21:06;;;;;;;5.80;5.30;;;19.90;95.10;;;;;;5093227;28;20548;-69
2022/07/05 00:23:33;;;;;;;6.30;5.80;;;20.00;95.30;;;;;;5093647;28;20527;-69
2022/07/05 00:26:00;;;;;;;6.03;5.33;;;19.90;95.70;;;;;;5093101;28;20528;-69
2022/07/05 00:28:27;;;;;;;6.63;5.37;;;19.90;95.30;;;;;;5093307;28;20524;-68
2022/07/05 00:30:54;;;;;;;6.00;5.50;;;19.90;95.80;;;;;;5092779;28;20909;-69
2022/07/05 00:33:21;;;;;;;6.07;5.60;;;19.80;96.00;;;;;;5093180;28;20529;-69
2022/07/05 00:35:49;;;;;;;6.03;5.53;;;19.70;95.80;;;;;;5092885;28;20532;-68
2022/07/05 00:38:16;;;;;;;5.53;5.10;;;19.70;96.00;;;;;;5093004;28;20447;-69
2022/07/05 00:40:44;;;;;;;5.57;5.17;;;19.80;96.00;;;;;;5092757;28;20553;-68
2022/07/05 00:43:11;;;;;;;5.90;5.50;;;19.80;95.50;;;;;;5093113;28;20447;-67
2022/07/05 00:45:38;;;;;;;6.30;5.80;;;19.80;96.00;;;;;;5093068;28;20536;-68
2022/07/05 00:48:05;;;;;;;6.10;5.60;;;19.80;96.00;;;;;;5092761;28;20544;-68
2022/07/05 00:50:32;;;;;;;8.00;6.03;;;19.80;96.80;;;;;;5092370;28;20541;-69
2022/07/05 00:53:01;;;;;;;5.80;5.30;;;19.80;97.40;;;;;;5093241;28;20536;-69
2022/07/05 00:55:27;;;;;;;5.90;5.50;;;19.80;97.30;;;;;;5092596;28;20528;-69
2022/07/05 00:57:55;;;;;;;5.40;5.03;;;19.90;96.80;;;;;;5092780;28;20541;-68
2022/07/05 01:00:22;;;;;;;6.03;5.53;;;19.90;96.00;;;;;;5092639;28;21051;-69
2022/07/05 01:02:49;;;;;;;6.47;5.87;;;19.90;96.80;;;;;;5093021;28;20537;-69
2022/07/05 01:05:16;;;;;;;6.23;5.70;;;20.00;97.30;;;;;;5092468;28;20531;-69
2022/07/05 01:07:43;;;;;;;5.93;5.47;;;19.90;97.00;;;;;;5091942;28;20477;-69
2022/07/05 01:10:12;;;;;;;6.60;6.00;;;20.00;97.30;;;;;;5092432;28;20549;-68
2022/07/05 01:12:40;;;;;;;6.27;5.77;;;19.90;97.70;;;;;;5093079;28;20509;-68
2022/07/05 01:15:08;;;;;;;6.60;6.10;;;19.90;97.70;;;;;;5093389;28;20439;-67
2022/07/05 01:17:36;;;;;;;6.57;6.07;;;19.90;97.50;;;;;;5093737;28;20474;-68
2022/07/05 01:20:05;;;;;;;5.33;4.93;;;19.90;97.20;;;;;;5093757;28;20462;-68
2022/07/05 01:22:51;;;;;;;5.47;5.07;;;19.80;97.10;;;;;;5093515;28;20438;-68
2022/07/05 01:25:18;;;;;;;5.43;5.03;;;19.80;97.10;;;;;;5093696;28;20498;-67
2022/07/05 01:27:46;;;;;;;5.83;5.40;;;19.80;97.00;;;;;;5093896;28;20477;-68
2022/07/05 01:30:13;;;;;;;5.37;4.97;;;19.70;96.70;;;;;;5093625;28;20476;-68
2022/07/05 01:32:40;;;;;;;5.50;5.10;;;19.70;96.70;;;;;;5093594;28;20484;-67
2022/07/05 01:35:08;;;;;;;5.27;4.90;;;19.80;96.90;;;;;;5093304;28;20528;-67
2022/07/05 01:37:37;;;;;;;5.17;4.77;;;19.70;96.90;;;;;;5093136;28;20528;-68
2022/07/05 01:40:05;;;;;;;5.63;5.13;;;19.60;96.90;;;;;;5094151;28;20880;-68
2022/07/05 01:42:32;;;;;;;5.50;5.10;;;19.50;97.30;;;;;;5093545;28;20540;-68
2022/07/05 01:44:59;;;;;;;6.30;5.30;;;19.50;97.90;;;;;;5093130;28;20528;-68
2022/07/05 01:47:26;;;;;;;6.17;5.57;;;19.50;97.90;;;;;;5093298;28;21016;-68
2022/07/05 01:49:55;;;;;;;5.13;4.83;;;19.50;97.80;;;;;;5093326;28;21014;-68
2022/07/05 01:52:25;;;;;;;6.03;5.53;;;19.50;98.40;;;;;;5093038;28;20473;-67
2022/07/05 01:54:53;;;;;;;6.22;5.70;;;19.50;98.40;;;;;;5092979;28;20934;-68
2022/07/05 01:57:20;;;;;;;5.30;4.90;;;19.50;98.50;;;;;;5093314;28;20294;-67
2022/07/05 01:59:47;;;;;;;5.77;5.27;;;19.50;98.30;;;;;;5093230;28;20445;-68
2022/07/05 02:02:14;;;;;;;5.90;5.50;;;19.50;98.10;;;;;;5093368;28;20534;-67
2022/07/05 02:04:42;;;;;;;6.13;5.70;;;19.50;98.30;;;;;;5092886;28;21007;-68
2022/07/05 02:07:09;;;;;;;6.07;5.67;;;19.40;98.60;;;;;;5093022;28;20552;-67
2022/07/05 02:09:37;;;;;;;6.13;5.63;;;19.30;98.90;;;;;;5093043;28;20533;-68
2022/07/05 02:12:06;;;;;;;6.13;5.63;;;19.30;99.40;;;;;;5093143;28;20567;-67
2022/07/05 02:14:33;;;;;;;5.93;5.53;;;19.30;99.60;;;;;;5092882;28;20528;-67
2022/07/05 02:17:00;;;;;;;6.70;6.10;;;19.30;99.80;;;;;;5093097;28;20537;-67
2022/07/05 02:19:27;;;;;;;6.72;6.13;;;19.20;99.90;;;;;;5094982;28;20451;-67
2022/07/05 02:21:54;;;;;;;6.67;6.17;;;19.20;99.90;;;;;;5096518;28;20608;-68
2022/07/05 02:24:21;;;;;;;6.53;6.00;;;19.30;99.90;;;;;;5096551;28;20539;-67
2022/07/05 02:26:48;;;;;;;6.57;6.17;;;19.20;99.90;;;;;;5096613;28;20451;-67
2022/07/05 02:29:16;;;;;;;7.00;6.50;;;19.10;99.90;;;;;;5096553;28;20877;-68
2022/07/05 02:31:43;;;;;;;6.88;6.28;;;19.10;99.90;;;;;;5096451;28;20494;-68
2022/07/05 02:34:10;;;;;;;6.78;6.18;;;19.10;99.90;;;;;;5096127;28;20743;-67
2022/07/05 02:36:37;;;;;;;7.00;6.35;;;19.00;99.90;;;;;;5096489;28;20292;-68
2022/07/05 02:39:04;;;;;;;6.70;6.22;;;19.00;99.90;;;;;;5096501;28;20289;-68
2022/07/05 02:41:31;;;;;;;6.80;6.32;;;19.00;99.90;;;;;;5096076;28;20381;-68
2022/07/05 02:43:57;;;;;;;8.35;7.30;;;19.00;99.90;;;;;;5096217;28;20297;-68
2022/07/05 02:46:26;;;;;;;7.30;6.70;;;19.00;99.90;;;;;;5096237;28;20308;-68
2022/07/05 02:48:53;;;;;;;7.32;6.80;;;19.00;99.90;;;;;;5096285;28;20296;-68
2022/07/05 02:51:20;;;;;;;8.07;7.43;;;18.90;99.90;;;;;;5096075;28;20556;-68
2022/07/05 02:53:47;;;;;;;7.17;6.57;;;18.90;99.90;;;;;;5096363;28;20912;-68
2022/07/05 02:56:13;;;;;;;7.47;6.90;;;18.90;99.90;;;;;;5096118;28;20532;-68
2022/07/05 02:58:40;;;;;;;8.32;7.63;;;18.90;99.90;;;;;;5096048;28;20294;-68
2022/07/05 03:01:07;;;;;;;8.50;7.70;;;18.80;99.90;;;;;;5095833;28;20332;-68
2022/07/05 03:03:35;;;;;;;7.57;6.97;;;18.80;99.90;;;;;;5096019;28;20297;-68
2022/07/05 03:06:02;;;;;;;8.18;7.57;;;18.70;99.90;;;;;;5095730;28;20632;-69
2022/07/05 03:08:29;;;;;;;7.95;7.30;;;18.80;99.90;;;;;;5095919;28;20296;-68
2022/07/05 03:10:56;;;;;;;7.50;6.80;;;18.70;99.90;;;;;;5095670;28;20308;-68
2022/07/05 03:13:23;;;;;;;7.00;6.50;;;18.70;99.90;;;;;;5095709;28;20323;-68
2022/07/05 03:15:50;;;;;;;7.97;7.18;;;18.70;99.90;;;;;;5095600;28;20240;-67
2022/07/05 03:18:17;;;;;;;6.88;6.38;;;18.70;99.90;;;;;;5095568;28;20241;-67
2022/07/05 03:20:45;;;;;;;8.07;7.38;;;18.70;99.90;;;;;;5095474;28;20261;-68
2022/07/05 03:23:12;;;;;;;7.80;7.10;;;18.60;99.90;;;;;;5095335;28;20208;-68
2022/07/05 03:25:39;;;;;;;7.57;6.85;;;18.60;99.90;;;;;;5095280;28;20245;-67
2022/07/05 03:28:05;;;;;;;6.93;6.18;;;18.60;99.90;;;;;;5095422;28;20209;-68
2022/07/05 03:30:32;;;;;;;8.38;7.43;;;18.60;99.90;;;;;;5095095;28;20322;-68
2022/07/05 03:32:59;;;;;;;6.78;6.28;;;18.60;99.90;;;;;;5095448;28;20318;-67
2022/07/05 03:35:27;;;;;;;7.60;6.53;;;18.50;99.90;;;;;;5095196;28;20290;-68
2022/07/05 03:37:56;;;;;;;6.60;6.00;;;18.40;99.90;;;;;;5095206;28;20234;-67
2022/07/05 03:40:23;;;;;;;7.22;6.63;;;18.40;99.90;;;;;;5095075;28;20746;-68
2022/07/05 03:42:50;;;;;;;7.30;6.70;;;18.30;99.90;;;;;;5095186;28;20234;-68
2022/07/05 03:45:17;;;;;;;7.00;6.40;;;18.40;99.90;;;;;;5095009;28;20232;-68
2022/07/05 03:47:44;;;;;;;7.20;6.60;;;18.40;99.90;;;;;;5095212;28;20308;-68
2022/07/05 03:50:10;;;;;;;7.35;6.65;;;18.40;99.90;;;;;;5095044;28;20226;-68
2022/07/05 03:52:37;;;;;;;7.63;7.00;;;18.40;99.90;;;;;;5095016;28;20313;-68
2022/07/05 03:55:06;;;;;;;6.80;6.30;;;18.30;99.90;;;;;;5094816;28;20229;-68
2022/07/05 03:57:33;;;;;;;7.13;6.63;;;18.40;99.90;;;;;;5094893;28;20202;-68
2022/07/05 04:00:00;;;;;;;6.32;5.93;;;18.40;99.90;;;;;;5094556;28;20738;-68
2022/07/05 04:02:27;;;;;;;7.57;6.88;;;18.40;99.90;;;;;;5094893;28;20620;-68
2022/07/05 04:04:54;;;;;;;6.93;6.43;;;18.40;99.90;;;;;;5094520;28;20237;-67
2022/07/05 04:07:20;;;;;;;7.43;6.72;;;18.30;99.90;;;;;;5094482;28;20292;-68
2022/07/05 04:09:47;;;;;;;7.25;6.53;;;18.30;99.90;;;;;;5094604;28;20237;-68
2022/07/05 04:12:15;;;;;;;7.95;6.60;;;18.40;99.90;;;;;;5094650;28;20308;-67
2022/07/05 04:14:42;;;;;;;7.82;7.22;;;18.40;99.90;;;;;;5094468;28;20233;-68
2022/07/05 04:17:09;;;;;;;7.70;7.00;;;18.40;99.90;;;;;;5094393;28;20672;-68
2022/07/05 04:19:36;;;;;;;6.90;6.40;;;18.40;99.90;;;;;;5094445;28;20675;-68
2022/07/05 04:22:03;;;;;;;7.78;7.15;;;18.30;99.90;;;;;;5094133;28;20256;-68
2022/07/05 04:24:31;;;;;;;7.45;6.85;;;18.30;99.90;;;;;;5093967;28;20289;-68
2022/07/05 04:26:58;;;;;;;6.95;6.25;;;18.40;99.90;;;;;;5094452;28;20288;-68
2022/07/05 04:29:26;;;;;;;7.20;6.60;;;18.50;99.90;;;;;;5094201;28;20292;-68
2022/07/05 04:31:53;;;;;;;7.30;6.60;;;18.50;99.90;;;;;;5093971;28;20309;-68
2022/07/05 04:34:19;;;;;;;7.70;6.75;;;18.50;99.90;;;;;;5094133;28;20241;-68
2022/07/05 04:36:46;;;;;;;6.78;6.18;;;18.40;99.90;;;;;;5094213;28;20237;-68
2022/07/05 04:39:13;;;;;;;7.30;6.70;;;18.40;99.90;;;;;;5094198;28;20233;-68
2022/07/05 04:41:40;;;;;;;7.57;6.97;;;18.40;99.90;;;;;;5093433;28;20262;-68
2022/07/05 04:44:07;;;;;;;7.75;7.05;;;18.40;99.90;;;;;;5093729;28;20202;-67
2022/07/05 04:46:35;;;;;;;7.68;7.07;;;18.40;99.90;;;;;;5094044;28;20296;-67
2022/07/05 04:49:02;;;;;;;7.30;6.60;;;18.40;99.90;;;;;;5094074;28;20206;-67
2022/07/05 04:51:29;;;;;;;7.60;6.93;;;18.50;99.90;;;;;;5093699;28;20218;-67
2022/07/05 04:53:56;;;;;;;7.10;6.50;;;18.50;99.90;;;;;;5093502;28;20691;-67
2022/07/05 04:56:23;;;;;;;6.00;5.60;;;18.60;99.90;;;;;;5093906;28;20204;-67
2022/07/05 04:58:50;;;;;;;5.53;5.13;;;18.60;99.90;;;;;;5093915;28;20237;-67
2022/07/05 05:01:17;;;;;;;5.57;5.18;;;18.50;99.90;;;;;;5093552;28;20218;-68
2022/07/05 05:03:45;;;;;;;6.90;6.40;;;18.40;99.90;;;;;;5093740;28;20230;-67
2022/07/05 05:06:13;;;;;;;6.10;5.70;;;18.40;99.90;;;;;;5093382;28;20288;-67
2022/07/05 05:08:41;;;;;;;7.13;5.90;;;18.50;99.90;;;;;;5093804;28;20228;-67
2022/07/05 05:11:08;;;;;;;6.55;6.05;;;18.60;99.90;;;;;;5093754;28;20227;-68
2022/07/05 05:13:34;;;;;;;6.55;6.05;;;18.70;99.90;;;;;;5093691;28;20264;-68
2022/07/05 05:16:02;;;;;;;6.10;5.50;;;18.80;99.90;;;;;;5093623;28;20234;-67
2022/07/05 05:18:29;;;;;;;5.72;5.22;;;18.80;99.90;;;;;;5093669;28;20205;-67
2022/07/05 05:20:57;;;;;;;5.82;5.18;;;18.80;99.90;;;;;;5093684;28;20220;-68
2022/07/05 05:23:24;;;;;;;5.22;4.72;;;18.90;99.90;;;;;;5093527;28;20230;-67
2022/07/05 05:25:51;;;;;;;5.25;4.88;;;18.90;99.90;;;;;;5093639;28;20202;-68
2022/07/05 05:28:18;;;;;;;5.05;4.65;;;18.80;99.90;;;;;;5093609;28;20234;-67
2022/07/05 05:30:45;;;;;;;4.88;4.47;;;18.80;99.90;;;;;;5093545;28;20255;-68
2022/07/05 05:33:12;;;;;;;4.90;4.50;;;18.80;99.90;;;;;;5093460;28;20265;-68
2022/07/05 05:35:39;;;;;;;4.15;3.95;;;18.80;99.90;;;;;;5093436;28;20240;-68
2022/07/05 05:38:07;;;;;;;4.70;4.30;;;18.80;99.90;;;;;;5093505;28;20202;-67
2022/07/05 05:40:34;;;;;;;4.30;3.90;;;18.60;99.90;;;;;;5093274;28;20260;-68
2022/07/05 05:43:01;;;;;;;4.30;4.00;;;18.60;99.90;;;;;;5093513;28;20204;-67
2022/07/05 05:45:28;;;;;;;4.25;3.90;;;18.60;99.90;;;;;;5093279;28;20231;-67
2022/07/05 05:47:56;;;;;;;4.25;3.95;;;18.50;99.60;;;;;;5093488;28;20238;-68
2022/07/05 05:50:25;;;;;;;3.95;3.65;;;18.60;99.50;;;;;;5093211;28;20269;-67
2022/07/05 05:52:52;;;;;;;3.90;3.63;;;18.70;99.90;;;;;;5094423;28;20309;-67
2022/07/05 05:55:21;;;;;;;3.55;3.25;;;18.80;99.60;;;;;;5097145;28;20202;-68
2022/07/05 05:57:48;;;;;;;4.40;3.23;;;18.80;99.90;;;;;;5096958;28;20202;-68
2022/07/05 06:00:16;;;;;;;4.03;2.87;;;18.90;98.80;;;;;;5097057;28;20548;-68
2022/07/05 06:02:44;;;;;;;3.23;3.00;;;19.00;97.60;;;;;;5096931;28;20973;-68
2022/07/05 06:05:11;;;;;;;3.10;2.90;;;19.00;97.00;;;;;;5096731;28;20448;-68
2022/07/05 06:07:48;;;;;;;2.88;2.67;;;19.10;96.50;;;;;;5096773;28;20490;-68
2022/07/05 06:10:24;;;;;;;2.70;2.60;;;19.20;96.40;;;;;;5096894;28;20311;-68
2022/07/05 06:12:53;;;;;;;3.05;2.75;;;19.10;95.30;;;;;;5096960;28;20512;-68
2022/07/05 06:15:20;;;;;;;3.05;2.95;;;19.20;94.50;;;;;;5096546;28;20722;-68
2022/07/05 06:17:47;;;;;;;2.80;2.70;;;19.10;95.30;;;;;;5096867;28;20234;-68
2022/07/05 06:20:16;;;;;;;2.83;2.63;;;19.10;95.60;;;;;;5096762;28;20270;-68
2022/07/05 06:22:43;;;;;;;2.93;2.73;;;19.00;95.90;;;;;;5096854;28;20437;-68
2022/07/05 06:25:11;;;;;;;3.10;2.90;;;19.00;96.30;;;;;;5096347;28;20528;-67
2022/07/05 06:27:43;;;;;;;3.80;3.50;;;19.00;96.10;;;;;;5096646;28;20473;-67
2022/07/05 06:30:11;;;;;;;4.20;3.50;;;19.00;96.40;;;;;;5096569;28;20863;-67
2022/07/05 06:32:38;;;;;;;3.20;3.00;;;19.10;96.90;;;;;;5096263;28;20564;-67
2022/07/05 06:35:06;;;;;;;3.17;2.97;;;19.20;97.20;;;;;;5096371;28;20241;-67
2022/07/05 06:37:44;;;;;;;3.45;3.15;;;19.20;96.80;;;;;;5096426;28;20449;-68
2022/07/05 06:40:12;;;;;;;5.70;3.10;;;19.30;96.40;;;;;;5096504;28;20225;-68
2022/07/05 06:42:39;;;;;;;6.10;3.57;;;19.30;97.00;;;;;;5103745;28;20481;-68
2022/07/05 06:45:08;;;;;;;3.37;3.07;;;19.30;97.20;;;;;;5095078;28;20454;-68
2022/07/05 06:47:35;;;;;;;3.57;3.30;;;19.40;97.30;;;;;;5095054;28;20490;-68
2022/07/05 06:50:03;;;;;;;3.13;2.90;;;19.70;96.50;;;;;;5094733;28;20452;-67
2022/07/05 06:52:31;;;;;;;3.10;2.90;;;19.90;95.50;;;;;;5094581;28;20448;-69
2022/07/05 06:54:58;;;;;;;4.77;4.33;;;20.10;96.00;;;;;;5094714;28;20470;-68
2022/07/05 06:57:25;;;;;;;3.40;3.10;;;20.00;96.20;;;;;;5094765;28;20450;-68
2022/07/05 06:59:52;;;;;;;2.40;2.30;;;20.10;94.80;;;;;;5094916;28;20538;-68
2022/07/05 07:02:21;;;;;;;3.03;2.77;;;20.10;94.40;;;;;;5094709;28;20481;-68
2022/07/05 07:04:48;;;;;;;4.53;2.57;;;20.20;95.10;;;;;;5093738;28;20478;-68
2022/07/05 07:10:01;;;;;;;2.60;2.40;;;20.90;91.80;;;;;;5094928;28;20473;-69
2022/07/05 07:12:29;;;;;;;2.70;2.50;;;21.10;91.50;;;;;;5094691;28;20451;-69
2022/07/05 07:14:56;;;;;;;2.77;2.57;;;21.30;90.70;;;;;;5094366;28;20496;-70
2022/07/05 07:17:24;;;;;;;2.77;2.53;;;21.50;90.30;;;;;;5094748;28;20476;-68
2022/07/05 07:19:51;;;;;;;2.73;2.53;;;22.10;89.60;;;;;;5095032;28;20490;-73
2022/07/05 07:22:18;;;;;;;2.40;2.20;;;22.40;90.20;;;;;;5094938;28;20481;-68
2022/07/05 07:24:45;;;;;;;4.03;2.53;;;22.60;88.90;;;;;;5094061;28;20483;-69
2022/07/05 07:27:12;;;;;;;3.53;3.03;;;22.90;89.50;;;;;;5094365;28;20478;-69
2022/07/05 07:29:40;;;;;;;2.80;2.60;;;23.20;84.60;;;;;;5094239;28;20453;-69
2022/07/05 07:32:08;;;;;;;3.10;2.80;;;23.30;83.70;;;;;;5094178;28;20492;-68
2022/07/05 07:34:37;;;;;;;2.60;2.40;;;23.20;85.20;;;;;;5094194;28;20483;-69
2022/07/05 07:37:05;;;;;;;2.80;2.60;;;23.10;87.40;;;;;;5094215;28;20456;-69
2022/07/05 07:39:32;;;;;;;3.30;3.10;;;23.10;85.40;;;;;;5094022;28;20531;-69
2022/07/05 07:41:59;;;;;;;3.10;2.90;;;22.80;88.50;;;;;;5110504;28;20471;-68
2022/07/05 07:44:26;;;;;;;4.40;2.93;;;22.50;88.10;;;;;;5113853;27;20495;-69
2022/07/05 07:46:53;;;;;;;3.33;3.13;;;22.30;87.90;;;;;;5114552;28;20443;-70
2022/07/05 07:49:20;;;;;;;3.33;3.03;;;22.40;88.80;;;;;;5114178;28;20479;-69
2022/07/05 07:51:49;;;;;;;4.00;3.70;;;22.40;90.70;;;;;;5114377;28;20470;-70
2022/07/05 07:54:16;;;;;;;3.37;3.17;;;22.70;88.00;;;;;;5113852;28;20566;-69
2022/07/05 07:56:43;;;;;;;3.50;3.20;;;23.60;86.90;;;;;;5114085;28;20477;-70
2022/07/05 07:59:09;;;;;;;2.87;2.60;;;24.70;85.50;;;;;;5114200;28;20449;-70
2022/07/05 08:01:36;;;;;;;3.20;2.90;;;25.20;79.60;;;;;;5114410;28;20470;-70
2022/07/05 08:04:03;;;;;;;3.40;3.20;;;26.30;75.70;;;;;;5113915;28;20463;-69
2022/07/05 08:06:30;;;;;;;3.07;2.87;;;27.10;70.40;;;;;;5114090;28;20578;-69
2022/07/05 08:09:00;;;;;;;4.27;2.60;;;27.30;68.30;;;;;;5115089;28;20801;-69
2022/07/05 08:11:26;;;;;;;2.57;2.37;;;28.10;66.80;;;;;;5114762;28;20866;-68
2022/07/05 08:13:53;;;;;;;4.33;2.83;;;28.50;64.80;;;;;;5114736;28;20508;-68
2022/07/05 08:16:20;;;;;;;3.27;3.07;;;28.20;64.60;;;;;;5114991;28;20478;-68
2022/07/05 08:21:31;;;;;;;3.03;2.77;;;26.90;69.10;;;;;;5114834;28;20914;-68
2022/07/05 08:24:00;;;;;;;3.00;2.80;;;26.20;70.60;;;;;;5114664;28;20475;-68
2022/07/05 08:26:27;;;;;;;3.33;2.83;;;25.50;69.90;;;;;;5114774;28;20443;-68
2022/07/05 08:28:54;;;;;;;2.77;2.60;;;25.20;70.50;;;;;;5114790;28;20813;-68
2022/07/05 08:31:21;;;;;;;2.90;2.70;;;25.30;73.40;;;;;;5114696;28;20495;-68
2022/07/05 08:33:48;;;;;;;2.80;2.60;;;25.40;75.10;;;;;;5114418;27;20502;-69
2022/07/05 08:36:15;;;;;;;2.90;2.70;;;25.80;70.60;;;;;;5114525;28;20475;-68
2022/07/05 08:38:42;;;;;;;2.77;2.57;;;26.40;71.10;;;;;;5114592;28;20479;-69
2022/07/05 08:41:12;;;;;;;2.70;2.50;;;26.90;70.60;;;;;;5114523;27;20880;-68
2022/07/05 08:43:42;;;;;;;3.00;2.80;;;27.50;71.10;;;;;;5114527;28;20466;-68
2022/07/05 08:46:10;;;;;;;2.90;2.70;;;27.50;69.10;;;;;;5114503;28;20526;-68
2022/07/05 08:48:41;;;;;;;2.90;2.70;;;27.20;64.80;;;;;;5114384;28;20446;-68
2022/07/05 08:51:12;;;;;;;2.80;2.60;;;26.70;68.10;;;;;;5114565;28;20524;-68
2022/07/05 08:53:40;;;;;;;2.77;2.60;;;26.50;70.00;;;;;;5114116;28;20980;-69
2022/07/05 08:56:10;;;;;;;3.43;3.13;;;27.10;70.40;;;;;;5114427;28;20483;-69
2022/07/05 08:58:38;;;;;;;2.40;2.30;;;28.20;64.90;;;;;;5114329;27;20443;-68
2022/07/05 09:01:05;;;;;;;2.57;2.37;;;29.10;60.60;;;;;;5113993;28;20508;-68
2022/07/05 09:03:34;;;;;;;2.50;2.40;;;29.50;55.70;;;;;;5114199;28;20472;-69
2022/07/05 09:06:02;;;;;;;2.63;2.53;;;29.20;54.50;;;;;;5113701;28;20450;-69
2022/07/05 09:08:32;;;;;;;2.60;2.30;;;29.50;55.00;;;;;;5114001;28;20471;-68
2022/07/05 09:11:02;;;;;;;2.20;2.10;;;29.90;55.60;;;;;;5114093;28;20467;-69
2022/07/05 09:13:34;;;;;;;2.23;2.13;;;31.90;50.90;;;;;;5114138;28;20521;-67
2022/07/05 09:16:01;;;;;;;2.90;1.80;;;32.80;46.40;;;;;;5113917;28;20548;-67
2022/07/05 09:18:40;;;;;;;2.10;1.90;;;34.20;45.70;;;;;;5113812;28;20475;-67
2022/07/05 09:21:13;;;;;;;1.70;1.60;;;35.70;41.90;;;;;;5114121;28;20832;-67
2022/07/05 09:23:40;;;;;;;2.30;2.20;;;37.30;39.00;;;;;;5114077;28;20423;-67
2022/07/05 09:26:07;;;;;;;2.50;2.40;;;37.40;37.40;;;;;;5113990;28;20478;-67
2022/07/05 09:28:35;;;;;;;2.40;2.20;;;36.40;39.00;;;;;;5116260;28;20478;-67
2022/07/05 09:31:02;;;;;;;2.10;1.90;;;36.50;37.10;;;;;;5118191;28;20496;-67
2022/07/05 09:33:29;;;;;;;2.27;2.07;;;37.40;36.40;;;;;;5118329;28;20494;-67
2022/07/05 09:35:57;;;;;;;2.07;1.97;;;37.90;35.30;;;;;;5118413;28;20438;-67
2022/07/05 09:38:26;;;;;;;1.87;1.77;;;37.50;34.50;;;;;;5118023;28;20450;-67
2022/07/05 09:40:54;;;;;;;1.93;1.83;;;37.10;34.40;;;;;;5117832;28;20502;-67
2022/07/05 09:43:22;;;;;;;2.23;1.80;;;37.20;36.40;;;;;;5117924;28;20439;-67
2022/07/05 09:45:58;;;;;;;2.60;2.00;;;36.20;34.30;;;;;;5117538;28;20443;-66
2022/07/05 09:48:26;;;;;;;1.90;1.80;;;36.40;34.00;;;;;;5117866;28;20476;-67
2022/07/05 09:50:53;;;;;;;1.97;1.87;;;36.40;34.40;;;;;;5117599;28;20495;-67
2022/07/05 09:53:20;;;;;;;1.83;1.73;;;36.50;35.40;;;;;;5117359;28;20486;-67
2022/07/05 09:56:02;;;;;;;2.00;1.90;;;37.10;34.40;;;;;;5117295;28;20496;-67
2022/07/05 09:58:30;;;;;;;2.30;2.10;;;38.00;32.00;;;;;;5115542;28;20442;-67
2022/07/05 10:00:58;;;;;;;1.87;1.70;;;38.90;31.00;;;;;;5117570;28;20490;-67
2022/07/05 10:03:25;;;;;;;1.90;1.80;;;39.30;32.00;;;;;;5117664;28;20446;-67
2022/07/05 10:05:52;;;;;;;1.80;1.70;;;39.20;30.90;;;;;;5117357;28;20474;-67
2022/07/05 10:08:21;;;;;;;2.10;1.60;;;39.20;31.00;;;;;;5117174;28;20453;-67
2022/07/05 10:10:50;;;;;;;2.03;1.93;;;39.80;30.10;;;;;;5117432;28;20459;-67
2022/07/05 10:13:17;;;;;;;2.63;1.90;;;39.90;30.00;;;;;;5117199;28;20471;-67
2022/07/05 10:15:46;;;;;;;1.70;1.60;;;40.00;29.40;;;;;;5117095;27;20558;-67
2022/07/05 10:18:18;;;;;;;2.03;1.90;;;38.80;28.40;;;;;;5117257;28;20470;-67
2022/07/05 10:20:46;;;;;;;1.70;1.60;;;37.30;30.90;;;;;;5117128;27;20490;-67
2022/07/05 10:23:13;;;;;;;1.93;1.83;;;36.30;31.00;;;;;;5116962;28;20533;-67
2022/07/05 10:25:42;;;;;;;1.80;1.70;;;35.30;34.00;;;;;;5116993;28;20435;-67
2022/07/05 10:28:09;;;;;;;2.03;1.83;;;35.50;33.20;;;;;;5117113;28;20577;-67
2022/07/05 10:30:37;;;;;;;1.80;1.80;;;35.60;32.60;;;;;;5116669;28;20498;-66
2022/07/05 10:33:06;;;;;;;2.33;1.90;;;34.70;34.10;;;;;;5116997;28;20438;-67
2022/07/05 10:35:35;;;;;;;2.40;1.70;;;33.90;35.10;;;;;;5116705;27;20565;-66
2022/07/05 10:38:05;;;;;;;2.97;1.90;;;33.70;35.10;;;;;;5116711;28;20471;-67
2022/07/05 10:40:33;;;;;;;1.77;1.67;;;33.50;34.60;;;;;;5115324;28;20976;-66
2022/07/05 10:43:02;;;;;;;1.83;1.60;;;33.00;37.60;;;;;;5116912;27;20474;-67
2022/07/05 10:45:30;;;;;;;2.50;1.80;;;32.70;37.40;;;;;;5116341;28;20470;-69
2022/07/05 10:48:13;;;;;;;1.60;1.53;;;31.70;36.20;;;;;;5116741;27;20438;-68
2022/07/05 10:50:52;;;;;;;1.90;1.80;;;31.10;38.10;;;;;;5116284;28;20503;-68
2022/07/05 10:53:21;;;;;;;4.27;1.70;;;30.90;39.30;;;;;;5116703;27;20759;-68
2022/07/05 10:55:53;;;;;;;1.40;1.40;;;30.70;39.20;;;;;;5116321;27;20483;-68
2022/07/05 10:58:25;;;;;;;1.60;1.50;;;30.60;39.70;;;;;;5116314;28;20820;-68
2022/07/05 11:01:29;;;;;;;1.90;1.80;;;30.50;40.00;;;;;;5116214;28;20973;-68
2022/07/05 11:04:08;;;;;;;2.03;1.80;;;30.10;40.30;;;;;;5116170;28;20530;-68
2022/07/05 11:06:43;;;;;;;2.27;2.07;;;29.40;41.40;;;;;;5116274;28;20493;-68
2022/07/05 11:09:20;;;;;;;2.20;2.10;;;28.80;42.30;;;;;;5116388;28;20476;-68
2022/07/05 11:11:48;;;;;;;2.60;2.20;;;28.60;44.10;;;;;;5115974;28;20460;-68
2022/07/05 11:14:32;;;;;;;2.40;2.20;;;28.50;45.40;;;;;;5115863;28;20488;-68
2022/07/05 11:17:22;;;;;;;2.33;1.90;;;28.40;43.40;;;;;;5116113;27;20435;-68
2022/07/05 11:20:13;;;;;;;1.63;1.53;;;28.30;47.10;;;;;;5115919;27;20445;-68
2022/07/05 11:23:00;;;;;;;1.90;1.80;;;28.50;42.80;;;;;;5116232;28;20465;-68
2022/07/05 11:25:30;;;;;;;3.50;1.93;;;28.80;42.60;;;;;;5115603;28;20958;-69
2022/07/05 11:28:08;;;;;;;2.17;1.97;;;28.70;42.10;;;;;;5115978;28;20440;-68
2022/07/05 11:30:49;;;;;;;2.77;2.57;;;28.60;44.20;;;;;;5115685;28;20518;-69
2022/07/05 11:33:34;;;;;;;2.20;2.10;;;28.50;44.30;;;;;;5115843;28;20522;-68
2022/07/05 11:36:01;;;;;;;4.43;2.83;;;28.60;44.60;;;;;;5115564;28;20541;-68
2022/07/05 11:38:30;;;;;;;2.50;2.30;;;28.30;43.60;;;;;;5115724;28;20472;-68
2022/07/05 11:41:11;;;;;;;2.37;2.13;;;28.00;43.40;;;;;;5115585;28;20490;-68
2022/07/05 11:43:38;;;;;;;2.40;2.30;;;27.50;44.70;;;;;;5115738;28;20461;-68
2022/07/05 11:46:05;;;;;;;2.17;2.00;;;26.90;45.10;;;;;;5115288;28;20439;-68
2022/07/05 11:48:32;;;;;;;2.20;2.00;;;27.10;45.30;;;;;;5115570;28;20439;-68
2022/07/05 11:51:12;;;;;;;2.27;2.17;;;27.30;46.70;;;;;;5115205;28;20495;-69
2022/07/05 11:53:42;;;;;;;2.50;2.30;;;27.40;45.40;;;;;;5115490;28;20435;-68
2022/07/05 11:56:10;;;;;;;2.20;2.10;;;27.00;46.00;;;;;;5115294;28;20478;-68
2022/07/05 11:58:37;;;;;;;3.07;2.43;;;26.80;46.90;;;;;;5115301;28;20439;-68
2022/07/05 12:01:05;;;;;;;2.73;2.57;;;26.70;48.00;;;;;;5115291;28;20498;-68
2022/07/05 12:03:32;;;;;;;2.60;2.40;;;26.80;47.50;;;;;;5115261;28;20450;-68
2022/07/05 12:05:59;;;;;;;2.30;2.10;;;27.00;47.60;;;;;;5115060;28;20522;-68
2022/07/05 12:08:26;;;;;;;2.30;2.10;;;27.40;47.60;;;;;;5115075;28;20955;-68
2022/07/05 12:13:45;;;;;;;3.27;2.30;;;27.50;47.00;;;;;;5114944;28;20415;-68
2022/07/05 12:16:12;;;;;;;2.60;2.40;;;27.30;47.30;;;;;;5114982;28;20474;-68
2022/07/05 12:18:48;;;;;;;2.57;2.37;;;27.20;48.10;;;;;;5114873;28;20444;-68
2022/07/05 12:21:15;;;;;;;2.47;2.37;;;27.30;47.50;;;;;;5114713;28;20467;-68
2022/07/05 12:23:43;;;;;;;2.10;2.00;;;27.60;48.40;;;;;;5114874;28;20475;-68
2022/07/05 12:26:12;;;;;;;4.07;3.70;;;27.90;49.50;;;;;;5114584;28;20447;-68
2022/07/05 12:28:40;;;;;;;2.37;2.23;;;28.30;48.20;;;;;;5114603;28;20877;-68
2022/07/05 12:31:21;;;;;;;2.70;2.50;;;28.50;46.90;;;;;;5114628;28;20491;-68
2022/07/05 12:33:49;;;;;;;2.57;2.47;;;28.60;47.40;;;;;;5114547;28;20864;-69
2022/07/05 12:36:18;;;;;;;2.47;2.30;;;28.80;46.10;;;;;;5114594;28;20560;-68
2022/07/05 12:38:45;;;;;;;2.60;2.40;;;28.70;45.90;;;;;;5114555;28;20472;-68
2022/07/05 12:41:22;;;;;;;2.90;2.60;;;28.60;46.50;;;;;;5114593;28;20464;-68
2022/07/05 12:43:51;;;;;;;2.80;2.60;;;28.60;45.30;;;;;;5114372;28;20447;-68
2022/07/05 12:46:18;;;;;;;3.17;2.97;;;28.00;46.40;;;;;;5114335;28;20471;-68
2022/07/05 12:48:51;;;;;;;3.37;3.17;;;27.60;47.70;;;;;;5114443;28;20441;-68
2022/07/05 12:51:32;;;;;;;2.90;2.70;;;27.50;48.00;;;;;;5114131;28;20947;-68
2022/07/05 12:59:35;;;;;;;3.03;2.83;;;27.90;48.40;;;;;;5114224;28;20442;-68
2022/07/05 13:02:02;;;;;;;3.00;2.80;;;28.10;48.90;;;;;;5113745;28;20493;-68
2022/07/05 13:04:29;;;;;;;2.40;2.30;;;28.30;48.00;;;;;;5113842;28;20861;-68
2022/07/05 13:06:57;;;;;;;2.80;2.70;;;28.30;46.80;;;;;;5114159;28;20487;-68
2022/07/05 13:09:35;;;;;;;2.50;2.40;;;28.20;47.60;;;;;;5114050;28;20443;-68